• Join FlightAware (Why Join?)
  • Login
  • US Flag 
02:25AM EDT


 

Airport Tracker/Info


-or-


 

Live Flight TrackerFlight Track Log ✈ DAL1205 ✈ 13-Apr-2013 ✈ KATL - KBNA

Flight Track Log - Related Links

Times and Time Zones

All times are in EDT time to prevent confusion due to time zone crossing. See the DAL1205 flight status page for this flight to view local times or setup timezone preferences in your user account.

Time Position Orientation Groundspeed Altitude Reporting Facility
EDT Latitude Longitude Course Direction KTS MPH feet Rate Location/Type
07:13PM 33.6500 -84.4500 287° West 162 186 2,100  Level Atlanta TRACON
07:14PM 33.6667 -84.5167 287° West 244 281 4,100 2,760 Climbing Atlanta TRACON
07:15PM 33.7167 -84.5833 312° West 272 313 7,700 2,340 Climbing Atlanta TRACON
07:17PM 33.8286 -84.5839 360° North 304 350 10,100 1,440 Climbing Atlanta Center
07:18PM 33.9161 -84.5894 357° North 305 351 11,400 1,800 Climbing Atlanta Center
07:19PM 34.0161 -84.6278 342° North 348 400 13,800 2,400 Climbing Atlanta Center
07:20PM 34.1100 -84.6636 342° North 373 429 16,300 2,340 Climbing Atlanta Center
07:21PM 34.2203 -84.7019 344° North 400 460 18,500 2,100 Climbing Atlanta Center
07:22PM 34.3244 -84.7658 333° Northwest 417 480 20,600 2,100 Climbing Atlanta Center
07:23PM 34.4261 -84.8422 328° Northwest 417 480 22,800 2,400 Climbing Atlanta Center
07:24PM 34.5278 -84.9161 329° Northwest 426 490 25,400 1,560 Climbing Atlanta Center
07:25PM 34.6233 -84.9928 327° Northwest 426 490 26,000 300 Climbing Atlanta Center
07:26PM 34.7186 -85.0672 327° Northwest 421 484 26,000  Level Atlanta Center
07:27PM 34.8244 -85.1494 327° Northwest 411 473 26,000  Level Atlanta Center
07:28PM 34.9219 -85.2244 328° Northwest 411 473 26,000  Level Atlanta Center
07:29PM 35.0192 -85.2992 328° Northwest 411 473 26,000 -600 Level Atlanta Center
07:30PM 35.1331 -85.3883 327° Northwest 414 476 24,700 -1,140 Descending Memphis Center
07:31PM 35.2139 -85.4800 317° Northwest 409 471 23,500 -1,620 Descending Memphis Center
07:32PM 35.2886 -85.5750 314° West 395 455 21,500 -2,340 Descending Memphis Center
07:33PM 35.3567 -85.6653 313° West 382 440 18,900 -2,340 Descending Memphis Center
07:34PM 35.4286 -85.7528 315° West 377 434 16,900 -1,800 Descending Memphis Center
07:35PM 35.4964 -85.8383 314° West 366 421 15,300 -1,560 Descending Memphis Center
07:36PM 35.5622 -85.9242 313° West 354 407 13,800 -1,320 Descending Memphis Center
07:37PM 35.6300 -86.0175 312° West 349 402 12,700 -1,140 Descending Memphis Center
07:38PM 35.6892 -86.0961 313° West 327 376 11,600 -1,140 Descending Memphis Center
07:39PM 35.7372 -86.1603 313° West 307 353 10,500 -1,500 Descending Memphis Center
07:40PM 35.7894 -86.2292 313° West 278 320 8,700 -1,800 Descending Memphis Center
07:41PM 35.8153 -86.3150 290° West 266 306 6,900 -1,920 Descending Memphis Center
07:42PM 35.8511 -86.3900 301° West 259 298 4,900 -1,500 Descending Memphis Center
07:43PM 35.8869 -86.4650 301° West 254 292 4,000 -480 Descending Memphis Center
07:44PM 35.9200 -86.5275 303° West 236 272 4,000  Level Memphis Center
07:45PM 35.9536 -86.6003 300° West 231 266 4,000 -540 Level Memphis Center
07:46PM 35.9869 -86.6656 302° West 224 258 3,000 -780 Descending Memphis Center
07:47PM 36.0239 -86.7228 309° West 219 252 2,500 -780 Descending Memphis Center
07:48PM 36.0714 -86.7056 16° North 170 196 1,500 -900 Descending Memphis Center
07:49PM 36.1106 -86.6883 20° North 147 169 800 -720 Descending Memphis Center